Aviation Digital Data Service (ADDS)

Output produced by METARs form (1209 UTC 22 March 2019)
found at http://www.aviationweather.gov/metar/data/
 
METAR text: EHRD 221155Z AUTO 17005KT 080V230 5000 BR NCD 12/09 Q1029 BECMG CAVOK
Conditions at: EHRD (ROTTERDAM AIRPOR, NL) observed 1155 UTC 22 March 2019
Temperature: 12.0°C (54°F)
Dewpoint: 9.0°C (48°F) [RH = 82%]
Pressure (altimeter): 30.38 inches Hg (1029.0 mb)
Winds: from the S (170 degrees) at 6 MPH (5 knots; 2.6 m/s)
Visibility: 3 miles ( 5 km)
Ceiling: at least 12,000 feet AGL
Clouds: sky clear below 12,000 feet AGL
Weather: BR  (mist)

METAR text: EHRD 221125Z AUTO 18006KT 130V220 4500 BR NCD 11/08 Q1029 BECMG CAVOK
Conditions at: EHRD (ROTTERDAM AIRPOR, NL) observed 1125 UTC 22 March 2019
Temperature: 11.0°C (52°F)
Dewpoint: 8.0°C (46°F) [RH = 82%]
Pressure (altimeter): 30.38 inches Hg (1029.0 mb)
Winds: from the S (180 degrees) at 7 MPH (6 knots; 3.1 m/s)
Visibility: 2.80 miles (4.51 km)
Ceiling: at least 12,000 feet AGL
Clouds: sky clear below 12,000 feet AGL
Weather: BR  (mist)

METAR text: EHRD 221055Z AUTO 18006KT 150V210 3700 BR NCD 11/09 Q1030 BECMG CAVOK
Conditions at: EHRD (ROTTERDAM AIRPOR, NL) observed 1055 UTC 22 March 2019
Temperature: 11.0°C (52°F)
Dewpoint: 9.0°C (48°F) [RH = 87%]
Pressure (altimeter): 30.41 inches Hg (1030.0 mb)
Winds: from the S (180 degrees) at 7 MPH (6 knots; 3.1 m/s)
Visibility: 2.30 miles (3.70 km)
Ceiling: at least 12,000 feet AGL
Clouds: sky clear below 12,000 feet AGL
Weather: BR  (mist)

METAR text: EHRD 221025Z AUTO 16006KT 110V270 3200 BR FEW006 10/08 Q1030 BECMG CAVOK
Conditions at: EHRD (ROTTERDAM AIRPOR, NL) observed 1025 UTC 22 March 2019
Temperature: 10.0°C (50°F)
Dewpoint: 8.0°C (46°F) [RH = 87%]
Pressure (altimeter): 30.41 inches Hg (1030.0 mb)
Winds: from the SSE (160 degrees) at 7 MPH (6 knots; 3.1 m/s)
Visibility: 1.99 miles (3.20 km)
Ceiling: at least 12,000 feet AGL
Clouds: few clouds at 600 feet AGL
Weather: BR  (mist)

METAR text: EHRD 220955Z AUTO 15005KT 110V190 2700 BR BKN003 OVC004 09/08 Q1030 BECMG 4000 BKN006
Conditions at: EHRD (ROTTERDAM AIRPOR, NL) observed 0955 UTC 22 March 2019
Temperature: 9.0°C (48°F)
Dewpoint: 8.0°C (46°F) [RH = 93%]
Pressure (altimeter): 30.41 inches Hg (1030.0 mb)
Winds: from the SSE (150 degrees) at 6 MPH (5 knots; 2.6 m/s)
Visibility: 1.68 miles (2.70 km)
Ceiling: 300 feet AGL
Clouds: broken clouds at 300 feet AGL
overcast cloud deck at 400 feet AGL
Weather: BR  (mist)

METAR text: EHRD 220925Z AUTO 14006KT 2000 BR OVC002 08/08 Q1030 BECMG 3000 BKN004
Conditions at: EHRD (ROTTERDAM AIRPOR, NL) observed 0925 UTC 22 March 2019
Temperature: 8.0°C (46°F)
Dewpoint: 8.0°C (46°F) [RH = 100%]
Pressure (altimeter): 30.41 inches Hg (1030.0 mb)
Winds: from the SE (140 degrees) at 7 MPH (6 knots; 3.1 m/s)
Visibility: 1.24 miles (2.00 km)
Ceiling: 200 feet AGL
Clouds: overcast cloud deck at 200 feet AGL
Weather: BR  (mist)

METAR text: EHRD 220855Z AUTO 12005KT 090V160 0800 R24/0900N FG VV001 07/07 Q1030 BECMG FM0930 2000 BKN002
Conditions at: EHRD (ROTTERDAM AIRPOR, NL) observed 0855 UTC 22 March 2019
Temperature: 7.0°C (45°F)
Dewpoint: 7.0°C (45°F) [RH = 100%]
Pressure (altimeter): 30.41 inches Hg (1030.0 mb)
Winds: from the ESE (120 degrees) at 6 MPH (5 knots; 2.6 m/s)
Visibility: 0.50 miles (0.80 km)
Ceiling: indefinite ceiling with vertical visibility of 100 feet AGL
Clouds: obscured sky
Weather: FG  (fog)

METAR text: EHRD 220825Z AUTO 11006KT 080V140 0400 R24/0700N FG VV000 06/06 Q1031 BECMG FM0830 0600 BKN001
Conditions at: EHRD (ROTTERDAM AIRPOR, NL) observed 0825 UTC 22 March 2019
Temperature: 6.0°C (43°F)
Dewpoint: 6.0°C (43°F) [RH = 100%]
Pressure (altimeter): 30.44 inches Hg (1031.0 mb)
Winds: from the ESE (110 degrees) at 7 MPH (6 knots; 3.1 m/s)
Visibility: 0.25 miles (0.40 km)
Ceiling: indefinite ceiling with vertical visibility of 0 feet AGL
Clouds: obscured sky
Weather: FG  (fog)

METAR text: EHRD 220755Z AUTO 10006KT 070V140 0400 R06/0500N FG VV000 06/06 Q1031 BECMG FM0830 0600 BKN001
Conditions at: EHRD (ROTTERDAM AIRPOR, NL) observed 0755 UTC 22 March 2019
Temperature: 6.0°C (43°F)
Dewpoint: 6.0°C (43°F) [RH = 100%]
Pressure (altimeter): 30.44 inches Hg (1031.0 mb)
Winds: from the E (100 degrees) at 7 MPH (6 knots; 3.1 m/s)
Visibility: 0.25 miles (0.40 km)
Ceiling: indefinite ceiling with vertical visibility of 0 feet AGL
Clouds: obscured sky
Weather: FG  (fog)

METAR text: EHRD 220725Z AUTO 10005KT 080V140 0200 R06/0350N FG VV000 06/06 Q1031 BECMG 0600
Conditions at: EHRD (ROTTERDAM AIRPOR, NL) observed 0725 UTC 22 March 2019
Temperature: 6.0°C (43°F)
Dewpoint: 6.0°C (43°F) [RH = 100%]
Pressure (altimeter): 30.44 inches Hg (1031.0 mb)
Winds: from the E (100 degrees) at 6 MPH (5 knots; 2.6 m/s)
Visibility: 0.12 miles (0.19 km)
Ceiling: indefinite ceiling with vertical visibility of 0 feet AGL
Clouds: obscured sky
Weather: FG  (fog)

METAR text: EHRD 220655Z AUTO 06005KT 030V100 0200 R06/0250N FG VV000 06/06 Q1031 NOSIG
Conditions at: EHRD (ROTTERDAM AIRPOR, NL) observed 0655 UTC 22 March 2019
Temperature: 6.0°C (43°F)
Dewpoint: 6.0°C (43°F) [RH = 100%]
Pressure (altimeter): 30.44 inches Hg (1031.0 mb)
Winds: from the ENE (60 degrees) at 6 MPH (5 knots; 2.6 m/s)
Visibility: 0.12 miles (0.19 km)
Ceiling: indefinite ceiling with vertical visibility of 0 feet AGL
Clouds: obscured sky
Weather: FG  (fog)

METAR text: EHRD 220625Z AUTO 07004KT 040V100 0200 R06/0350N FG VV000 06/06 Q1031 NOSIG
Conditions at: EHRD (ROTTERDAM AIRPOR, NL) observed 0625 UTC 22 March 2019
Temperature: 6.0°C (43°F)
Dewpoint: 6.0°C (43°F) [RH = 100%]
Pressure (altimeter): 30.44 inches Hg (1031.0 mb)
Winds: from the ENE (70 degrees) at 5 MPH (4 knots; 2.1 m/s)
Visibility: 0.12 miles (0.19 km)
Ceiling: indefinite ceiling with vertical visibility of 0 feet AGL
Clouds: obscured sky
Weather: FG  (fog)

METAR text: EHRD 220555Z AUTO 07006KT 0300 R24/0350N FG VV000 07/07 Q1031 NOSIG
Conditions at: EHRD (ROTTERDAM AIRPOR, NL) observed 0555 UTC 22 March 2019
Temperature: 7.0°C (45°F)
Dewpoint: 7.0°C (45°F) [RH = 100%]
Pressure (altimeter): 30.44 inches Hg (1031.0 mb)
Winds: from the ENE (70 degrees) at 7 MPH (6 knots; 3.1 m/s)
Visibility: 0.19 miles (0.31 km)
Ceiling: indefinite ceiling with vertical visibility of 0 feet AGL
Clouds: obscured sky
Weather: FG  (fog)

METAR text: EHRD 220525Z AUTO 06005KT 0350 R06/0500N FG VV000 07/07 Q1031 NOSIG
Conditions at: EHRD (ROTTERDAM AIRPOR, NL) observed 0525 UTC 22 March 2019
Temperature: 7.0°C (45°F)
Dewpoint: 7.0°C (45°F) [RH = 100%]
Pressure (altimeter): 30.44 inches Hg (1031.0 mb)
Winds: from the ENE (60 degrees) at 6 MPH (5 knots; 2.6 m/s)
Visibility: 0.22 miles (0.35 km)
Ceiling: indefinite ceiling with vertical visibility of 0 feet AGL
Clouds: obscured sky
Weather: FG  (fog)

METAR text: EHRD 220455Z AUTO VRB02KT 1400 R24/P2000N BR OVC001 08/07 Q1031 BECMG 0400 FG BKN000
Conditions at: EHRD (ROTTERDAM AIRPOR, NL) observed 0455 UTC 22 March 2019
Temperature: 8.0°C (46°F)
Dewpoint: 7.0°C (45°F) [RH = 93%]
Pressure (altimeter): 30.44 inches Hg (1031.0 mb)
Winds: variable direction winds at 2 MPH (2 knots; 1.0 m/s)
Visibility: 0.87 miles (1.40 km)
Ceiling: 100 feet AGL
Clouds: overcast cloud deck at 100 feet AGL
Weather: BR  (mist)

METAR text: EHRD 220425Z AUTO 09003KT 060V120 2000 BR OVC002 08/07 Q1031 BECMG 0400 FG BKN000
Conditions at: EHRD (ROTTERDAM AIRPOR, NL) observed 0425 UTC 22 March 2019
Temperature: 8.0°C (46°F)
Dewpoint: 7.0°C (45°F) [RH = 93%]
Pressure (altimeter): 30.44 inches Hg (1031.0 mb)
Winds: from the E (90 degrees) at 3 MPH (3 knots; 1.5 m/s)
Visibility: 1.24 miles (2.00 km)
Ceiling: 200 feet AGL
Clouds: overcast cloud deck at 200 feet AGL
Weather: BR  (mist)

METAR text: EHRD 220355Z AUTO 11004KT 2200 BR OVC002 08/07 Q1031 BECMG 0400 FG BKN000
Conditions at: EHRD (ROTTERDAM AIRPOR, NL) observed 0355 UTC 22 March 2019
Temperature: 8.0°C (46°F)
Dewpoint: 7.0°C (45°F) [RH = 93%]
Pressure (altimeter): 30.44 inches Hg (1031.0 mb)
Winds: from the ESE (110 degrees) at 5 MPH (4 knots; 2.1 m/s)
Visibility: 1.37 miles (2.20 km)
Ceiling: 200 feet AGL
Clouds: overcast cloud deck at 200 feet AGL
Weather: BR  (mist)

METAR text: EHRD 220325Z AUTO 10004KT 2800 BR OVC004 08/07 Q1031 BECMG 0400 FG BKN000
Conditions at: EHRD (ROTTERDAM AIRPOR, NL) observed 0325 UTC 22 March 2019
Temperature: 8.0°C (46°F)
Dewpoint: 7.0°C (45°F) [RH = 93%]
Pressure (altimeter): 30.44 inches Hg (1031.0 mb)
Winds: from the E (100 degrees) at 5 MPH (4 knots; 2.1 m/s)
Visibility: 1.74 miles (2.80 km)
Ceiling: 400 feet AGL
Clouds: overcast cloud deck at 400 feet AGL
Weather: BR  (mist)

METAR text: EHRD 220255Z AUTO 12004KT 080V150 3300 BR OVC005 08/07 Q1031 BECMG 0400 FG BKN000
Conditions at: EHRD (ROTTERDAM AIRPOR, NL) observed 0255 UTC 22 March 2019
Temperature: 8.0°C (46°F)
Dewpoint: 7.0°C (45°F) [RH = 93%]
Pressure (altimeter): 30.44 inches Hg (1031.0 mb)
Winds: from the ESE (120 degrees) at 5 MPH (4 knots; 2.1 m/s)
Visibility: 2.05 miles (3.30 km)
Ceiling: 500 feet AGL
Clouds: overcast cloud deck at 500 feet AGL
Weather: BR  (mist)

METAR text: EHRD 220225Z AUTO VRB01KT 4200 BR OVC006 08/07 Q1032 BECMG 0400 FG BKN000
Conditions at: EHRD (ROTTERDAM AIRPOR, NL) observed 0225 UTC 22 March 2019
Temperature: 8.0°C (46°F)
Dewpoint: 7.0°C (45°F) [RH = 93%]
Pressure (altimeter): 30.47 inches Hg (1032.0 mb)
Winds: variable direction winds at 1 MPH (1 knots; 0.5 m/s)
Visibility: 2.61 miles (4.20 km)
Ceiling: 600 feet AGL
Clouds: overcast cloud deck at 600 feet AGL
Weather: BR  (mist)

METAR text: EHRD 220155Z AUTO 00000KT 3300 BR OVC006 07/07 Q1032 BECMG 0400 FG BKN000
Conditions at: EHRD (ROTTERDAM AIRPOR, NL) observed 0155 UTC 22 March 2019
Temperature: 7.0°C (45°F)
Dewpoint: 7.0°C (45°F) [RH = 100%]
Pressure (altimeter): 30.47 inches Hg (1032.0 mb)
Winds: calm
Visibility: 2.05 miles (3.30 km)
Ceiling: 600 feet AGL
Clouds: overcast cloud deck at 600 feet AGL
Weather: BR  (mist)

METAR text: EHRD 220125Z AUTO VRB01KT 3200 BR OVC007 07/07 Q1032 BECMG 1500 BR BKN002
Conditions at: EHRD (ROTTERDAM AIRPOR, NL) observed 0125 UTC 22 March 2019
Temperature: 7.0°C (45°F)
Dewpoint: 7.0°C (45°F) [RH = 100%]
Pressure (altimeter): 30.47 inches Hg (1032.0 mb)
Winds: variable direction winds at 1 MPH (1 knots; 0.5 m/s)
Visibility: 1.99 miles (3.20 km)
Ceiling: 700 feet AGL
Clouds: overcast cloud deck at 700 feet AGL
Weather: BR  (mist)

METAR text: EHRD 220055Z AUTO 20002KT 3900 BR OVC006 07/07 Q1032 BECMG 0500 FG NSC
Conditions at: EHRD (ROTTERDAM AIRPOR, NL) observed 0055 UTC 22 March 2019
Temperature: 7.0°C (45°F)
Dewpoint: 7.0°C (45°F) [RH = 100%]
Pressure (altimeter): 30.47 inches Hg (1032.0 mb)
Winds: from the SSW (200 degrees) at 2 MPH (2 knots; 1.0 m/s)
Visibility: 2.42 miles (3.89 km)
Ceiling: 600 feet AGL
Clouds: overcast cloud deck at 600 feet AGL
Weather: BR  (mist)

METAR text: EHRD 220025Z AUTO 18004KT 140V210 4800 BR OVC006 08/07 Q1032 BECMG 0500 FG NSC
Conditions at: EHRD (ROTTERDAM AIRPOR, NL) observed 0025 UTC 22 March 2019
Temperature: 8.0°C (46°F)
Dewpoint: 7.0°C (45°F) [RH = 93%]
Pressure (altimeter): 30.47 inches Hg (1032.0 mb)
Winds: from the S (180 degrees) at 5 MPH (4 knots; 2.1 m/s)
Visibility: 2.98 miles (4.80 km)
Ceiling: 600 feet AGL
Clouds: overcast cloud deck at 600 feet AGL
Weather: BR  (mist)

METAR text: EHRD 212355Z AUTO 18004KT 160V220 5000 BR OVC007 08/07 Q1032 BECMG 0500 FG NSC
Conditions at: EHRD (ROTTERDAM AIRPOR, NL) observed 2355 UTC 21 March 2019
Temperature: 8.0°C (46°F)
Dewpoint: 7.0°C (45°F) [RH = 93%]
Pressure (altimeter): 30.47 inches Hg (1032.0 mb)
Winds: from the S (180 degrees) at 5 MPH (4 knots; 2.1 m/s)
Visibility: 3 miles ( 5 km)
Ceiling: 700 feet AGL
Clouds: overcast cloud deck at 700 feet AGL
Weather: BR  (mist)

METAR text: EHRD 212325Z AUTO 18004KT 140V210 6000 OVC008 08/07 Q1032 NOSIG
Conditions at: EHRD (ROTTERDAM AIRPOR, NL) observed 2325 UTC 21 March 2019
Temperature: 8.0°C (46°F)
Dewpoint: 7.0°C (45°F) [RH = 93%]
Pressure (altimeter): 30.47 inches Hg (1032.0 mb)
Winds: from the S (180 degrees) at 5 MPH (4 knots; 2.1 m/s)
Visibility: 4 miles ( 6 km)
Ceiling: 800 feet AGL
Clouds: overcast cloud deck at 800 feet AGL
Weather: no significant weather observed at this time

METAR text: EHRD 212255Z AUTO VRB02KT 6000 OVC008 08/07 Q1032 NOSIG
Conditions at: EHRD (ROTTERDAM AIRPOR, NL) observed 2255 UTC 21 March 2019
Temperature: 8.0°C (46°F)
Dewpoint: 7.0°C (45°F) [RH = 93%]
Pressure (altimeter): 30.47 inches Hg (1032.0 mb)
Winds: variable direction winds at 2 MPH (2 knots; 1.0 m/s)
Visibility: 4 miles ( 6 km)
Ceiling: 800 feet AGL
Clouds: overcast cloud deck at 800 feet AGL
Weather: no significant weather observed at this time

METAR text: EHRD 212225Z AUTO VRB01KT 7000 OVC008 08/07 Q1033 NOSIG
Conditions at: EHRD (ROTTERDAM AIRPOR, NL) observed 2225 UTC 21 March 2019
Temperature: 8.0°C (46°F)
Dewpoint: 7.0°C (45°F) [RH = 93%]
Pressure (altimeter): 30.50 inches Hg (1033.0 mb)
Winds: variable direction winds at 1 MPH (1 knots; 0.5 m/s)
Visibility: 4 miles ( 7 km)
Ceiling: 800 feet AGL
Clouds: overcast cloud deck at 800 feet AGL
Weather: no significant weather observed at this time

METAR text: EHRD 212155Z AUTO 22001KT 7000 OVC008 08/07 Q1033 NOSIG
Conditions at: EHRD (ROTTERDAM AIRPOR, NL) observed 2155 UTC 21 March 2019
Temperature: 8.0°C (46°F)
Dewpoint: 7.0°C (45°F) [RH = 93%]
Pressure (altimeter): 30.50 inches Hg (1033.0 mb)
Winds: from the SW (220 degrees) at 1 MPH (1 knots; 0.5 m/s)
Visibility: 4 miles ( 7 km)
Ceiling: 800 feet AGL
Clouds: overcast cloud deck at 800 feet AGL
Weather: no significant weather observed at this time

METAR text: EHRD 212125Z AUTO 33001KT 8000 OVC008 08/07 Q1033 BECMG 6000
Conditions at: EHRD (ROTTERDAM AIRPOR, NL) observed 2125 UTC 21 March 2019
Temperature: 8.0°C (46°F)
Dewpoint: 7.0°C (45°F) [RH = 93%]
Pressure (altimeter): 30.50 inches Hg (1033.0 mb)
Winds: from the NNW (330 degrees) at 1 MPH (1 knots; 0.5 m/s)
Visibility: 5 miles ( 8 km)
Ceiling: 800 feet AGL
Clouds: overcast cloud deck at 800 feet AGL
Weather: no significant weather observed at this time

METAR text: EHRD 212055Z AUTO VRB01KT 8000 BKN007 OVC009 08/07 Q1033 NOSIG
Conditions at: EHRD (ROTTERDAM AIRPOR, NL) observed 2055 UTC 21 March 2019
Temperature: 8.0°C (46°F)
Dewpoint: 7.0°C (45°F) [RH = 93%]
Pressure (altimeter): 30.50 inches Hg (1033.0 mb)
Winds: variable direction winds at 1 MPH (1 knots; 0.5 m/s)
Visibility: 5 miles ( 8 km)
Ceiling: 700 feet AGL
Clouds: broken clouds at 700 feet AGL
overcast cloud deck at 900 feet AGL
Weather: no significant weather observed at this time

METAR text: EHRD 212025Z AUTO VRB01KT 7000 OVC008 08/07 Q1033 NOSIG
Conditions at: EHRD (ROTTERDAM AIRPOR, NL) observed 2025 UTC 21 March 2019
Temperature: 8.0°C (46°F)
Dewpoint: 7.0°C (45°F) [RH = 93%]
Pressure (altimeter): 30.50 inches Hg (1033.0 mb)
Winds: variable direction winds at 1 MPH (1 knots; 0.5 m/s)
Visibility: 4 miles ( 7 km)
Ceiling: 800 feet AGL
Clouds: overcast cloud deck at 800 feet AGL
Weather: no significant weather observed at this time

METAR text: EHRD 211955Z AUTO VRB02KT 6000 OVC008 09/07 Q1033 NOSIG
Conditions at: EHRD (ROTTERDAM AIRPOR, NL) observed 1955 UTC 21 March 2019
Temperature: 9.0°C (48°F)
Dewpoint: 7.0°C (45°F) [RH = 87%]
Pressure (altimeter): 30.50 inches Hg (1033.0 mb)
Winds: variable direction winds at 2 MPH (2 knots; 1.0 m/s)
Visibility: 4 miles ( 6 km)
Ceiling: 800 feet AGL
Clouds: overcast cloud deck at 800 feet AGL
Weather: no significant weather observed at this time

METAR text: EHRD 211925Z AUTO VRB02KT 8000 OVC009 09/07 Q1033 NOSIG
Conditions at: EHRD (ROTTERDAM AIRPOR, NL) observed 1925 UTC 21 March 2019
Temperature: 9.0°C (48°F)
Dewpoint: 7.0°C (45°F) [RH = 87%]
Pressure (altimeter): 30.50 inches Hg (1033.0 mb)
Winds: variable direction winds at 2 MPH (2 knots; 1.0 m/s)
Visibility: 5 miles ( 8 km)
Ceiling: 900 feet AGL
Clouds: overcast cloud deck at 900 feet AGL
Weather: no significant weather observed at this time

METAR text: EHRD 211855Z AUTO 30004KT 270V340 8000 OVC008 09/08 Q1033 NOSIG
Conditions at: EHRD (ROTTERDAM AIRPOR, NL) observed 1855 UTC 21 March 2019
Temperature: 9.0°C (48°F)
Dewpoint: 8.0°C (46°F) [RH = 93%]
Pressure (altimeter): 30.50 inches Hg (1033.0 mb)
Winds: from the WNW (300 degrees) at 5 MPH (4 knots; 2.1 m/s)
Visibility: 5 miles ( 8 km)
Ceiling: 800 feet AGL
Clouds: overcast cloud deck at 800 feet AGL
Weather: no significant weather observed at this time

METAR text: EHRD 211825Z AUTO 29004KT 250V320 8000 OVC008 09/08 Q1033 NOSIG
Conditions at: EHRD (ROTTERDAM AIRPOR, NL) observed 1825 UTC 21 March 2019
Temperature: 9.0°C (48°F)
Dewpoint: 8.0°C (46°F) [RH = 93%]
Pressure (altimeter): 30.50 inches Hg (1033.0 mb)
Winds: from the WNW (290 degrees) at 5 MPH (4 knots; 2.1 m/s)
Visibility: 5 miles ( 8 km)
Ceiling: 800 feet AGL
Clouds: overcast cloud deck at 800 feet AGL
Weather: no significant weather observed at this time

METAR text: EHRD 211755Z AUTO 28005KT 240V320 9000 OVC008 09/08 Q1033 NOSIG
Conditions at: EHRD (ROTTERDAM AIRPOR, NL) observed 1755 UTC 21 March 2019
Temperature: 9.0°C (48°F)
Dewpoint: 8.0°C (46°F) [RH = 93%]
Pressure (altimeter): 30.50 inches Hg (1033.0 mb)
Winds: from the W (280 degrees) at 6 MPH (5 knots; 2.6 m/s)
Visibility: 6 miles ( 9 km)
Ceiling: 800 feet AGL
Clouds: overcast cloud deck at 800 feet AGL
Weather: no significant weather observed at this time

METAR text: EHRD 211725Z AUTO 28004KT 250V320 9999 OVC008 09/08 Q1033 NOSIG
Conditions at: EHRD (ROTTERDAM AIRPOR, NL) observed 1725 UTC 21 March 2019
Temperature: 9.0°C (48°F)
Dewpoint: 8.0°C (46°F) [RH = 93%]
Pressure (altimeter): 30.50 inches Hg (1033.0 mb)
Winds: from the W (280 degrees) at 5 MPH (4 knots; 2.1 m/s)
Visibility: 6 or more miles (10+ km)
Ceiling: 800 feet AGL
Clouds: overcast cloud deck at 800 feet AGL
Weather: no significant weather observed at this time

METAR text: EHRD 211655Z AUTO 27005KT 240V300 9999 OVC008 09/08 Q1033 BECMG BKN010
Conditions at: EHRD (ROTTERDAM AIRPOR, NL) observed 1655 UTC 21 March 2019
Temperature: 9.0°C (48°F)
Dewpoint: 8.0°C (46°F) [RH = 93%]
Pressure (altimeter): 30.50 inches Hg (1033.0 mb)
Winds: from the W (270 degrees) at 6 MPH (5 knots; 2.6 m/s)
Visibility: 6 or more miles (10+ km)
Ceiling: 800 feet AGL
Clouds: overcast cloud deck at 800 feet AGL
Weather: no significant weather observed at this time

METAR text: EHRD 211625Z AUTO 27005KT 9999 OVC009 09/08 Q1033 BECMG BKN010
Conditions at: EHRD (ROTTERDAM AIRPOR, NL) observed 1625 UTC 21 March 2019
Temperature: 9.0°C (48°F)
Dewpoint: 8.0°C (46°F) [RH = 93%]
Pressure (altimeter): 30.50 inches Hg (1033.0 mb)
Winds: from the W (270 degrees) at 6 MPH (5 knots; 2.6 m/s)
Visibility: 6 or more miles (10+ km)
Ceiling: 900 feet AGL
Clouds: overcast cloud deck at 900 feet AGL
Weather: no significant weather observed at this time

METAR text: EHRD 211555Z AUTO 28006KT 250V310 9999 OVC009 10/08 Q1033 BECMG BKN010
Conditions at: EHRD (ROTTERDAM AIRPOR, NL) observed 1555 UTC 21 March 2019
Temperature: 10.0°C (50°F)
Dewpoint: 8.0°C (46°F) [RH = 87%]
Pressure (altimeter): 30.50 inches Hg (1033.0 mb)
Winds: from the W (280 degrees) at 7 MPH (6 knots; 3.1 m/s)
Visibility: 6 or more miles (10+ km)
Ceiling: 900 feet AGL
Clouds: overcast cloud deck at 900 feet AGL
Weather: no significant weather observed at this time

METAR text: EHRD 211525Z AUTO 27006KT 240V300 9999 OVC009 10/08 Q1033 BECMG BKN010
Conditions at: EHRD (ROTTERDAM AIRPOR, NL) observed 1525 UTC 21 March 2019
Temperature: 10.0°C (50°F)
Dewpoint: 8.0°C (46°F) [RH = 87%]
Pressure (altimeter): 30.50 inches Hg (1033.0 mb)
Winds: from the W (270 degrees) at 7 MPH (6 knots; 3.1 m/s)
Visibility: 6 or more miles (10+ km)
Ceiling: 900 feet AGL
Clouds: overcast cloud deck at 900 feet AGL
Weather: no significant weather observed at this time

METAR text: EHRD 211455Z AUTO 27008KT 240V310 9999 BKN011 OVC013 10/08 Q1033 NOSIG
Conditions at: EHRD (ROTTERDAM AIRPOR, NL) observed 1455 UTC 21 March 2019
Temperature: 10.0°C (50°F)
Dewpoint: 8.0°C (46°F) [RH = 87%]
Pressure (altimeter): 30.50 inches Hg (1033.0 mb)
Winds: from the W (270 degrees) at 9 MPH (8 knots; 4.1 m/s)
Visibility: 6 or more miles (10+ km)
Ceiling: 1100 feet AGL
Clouds: broken clouds at 1100 feet AGL
overcast cloud deck at 1300 feet AGL
Weather: no significant weather observed at this time

METAR text: EHRD 211425Z AUTO 26007KT 230V290 9999 OVC012 10/08 Q1033 BECMG BKN015
Conditions at: EHRD (ROTTERDAM AIRPOR, NL) observed 1425 UTC 21 March 2019
Temperature: 10.0°C (50°F)
Dewpoint: 8.0°C (46°F) [RH = 87%]
Pressure (altimeter): 30.50 inches Hg (1033.0 mb)
Winds: from the W (260 degrees) at 8 MPH (7 knots; 3.6 m/s)
Visibility: 6 or more miles (10+ km)
Ceiling: 1200 feet AGL
Clouds: overcast cloud deck at 1200 feet AGL
Weather: no significant weather observed at this time

METAR text: EHRD 211355Z AUTO 27007KT 240V310 9999 BKN013 OVC015 10/08 Q1034 BECMG BKN015
Conditions at: EHRD (ROTTERDAM AIRPOR, NL) observed 1355 UTC 21 March 2019
Temperature: 10.0°C (50°F)
Dewpoint: 8.0°C (46°F) [RH = 87%]
Pressure (altimeter): 30.53 inches Hg (1034.0 mb)
Winds: from the W (270 degrees) at 8 MPH (7 knots; 3.6 m/s)
Visibility: 6 or more miles (10+ km)
Ceiling: 1300 feet AGL
Clouds: broken clouds at 1300 feet AGL
overcast cloud deck at 1500 feet AGL
Weather: no significant weather observed at this time

METAR text: EHRD 211325Z AUTO 25008KT 220V280 9999 OVC014 11/08 Q1034 BECMG BKN015
Conditions at: EHRD (ROTTERDAM AIRPOR, NL) observed 1325 UTC 21 March 2019
Temperature: 11.0°C (52°F)
Dewpoint: 8.0°C (46°F) [RH = 82%]
Pressure (altimeter): 30.53 inches Hg (1034.0 mb)
Winds: from the WSW (250 degrees) at 9 MPH (8 knots; 4.1 m/s)
Visibility: 6 or more miles (10+ km)
Ceiling: 1400 feet AGL
Clouds: overcast cloud deck at 1400 feet AGL
Weather: no significant weather observed at this time

METAR text: EHRD 211255Z AUTO 24009KT 200V280 9999 OVC014 11/08 Q1034 BECMG BKN015
Conditions at: EHRD (ROTTERDAM AIRPOR, NL) observed 1255 UTC 21 March 2019
Temperature: 11.0°C (52°F)
Dewpoint: 8.0°C (46°F) [RH = 82%]
Pressure (altimeter): 30.53 inches Hg (1034.0 mb)
Winds: from the WSW (240 degrees) at 10 MPH (9 knots; 4.6 m/s)
Visibility: 6 or more miles (10+ km)
Ceiling: 1400 feet AGL
Clouds: overcast cloud deck at 1400 feet AGL
Weather: no significant weather observed at this time

METAR text: EHRD 211225Z AUTO 23009KT 9999 BKN012 OVC015 11/08 Q1034 BECMG BKN015
Conditions at: EHRD (ROTTERDAM AIRPOR, NL) observed 1225 UTC 21 March 2019
Temperature: 11.0°C (52°F)
Dewpoint: 8.0°C (46°F) [RH = 82%]
Pressure (altimeter): 30.53 inches Hg (1034.0 mb)
Winds: from the SW (230 degrees) at 10 MPH (9 knots; 4.6 m/s)
Visibility: 6 or more miles (10+ km)
Ceiling: 1200 feet AGL
Clouds: broken clouds at 1200 feet AGL
overcast cloud deck at 1500 feet AGL
Weather: no significant weather observed at this time

METAR text: EHRD 211155Z AUTO 23008KT 200V260 9999 OVC012 10/08 Q1034 BECMG BKN015
Conditions at: EHRD (ROTTERDAM AIRPOR, NL) observed 1155 UTC 21 March 2019
Temperature: 10.0°C (50°F)
Dewpoint: 8.0°C (46°F) [RH = 87%]
Pressure (altimeter): 30.53 inches Hg (1034.0 mb)
Winds: from the SW (230 degrees) at 9 MPH (8 knots; 4.1 m/s)
Visibility: 6 or more miles (10+ km)
Ceiling: 1200 feet AGL
Clouds: overcast cloud deck at 1200 feet AGL
Weather: no significant weather observed at this time

METAR text: EHRD 211125Z AUTO 23008KT 190V260 9999 SCT011 BKN014 OVC016 10/08 Q1034 BECMG BKN015
Conditions at: EHRD (ROTTERDAM AIRPOR, NL) observed 1125 UTC 21 March 2019
Temperature: 10.0°C (50°F)
Dewpoint: 8.0°C (46°F) [RH = 87%]
Pressure (altimeter): 30.53 inches Hg (1034.0 mb)
Winds: from the SW (230 degrees) at 9 MPH (8 knots; 4.1 m/s)
Visibility: 6 or more miles (10+ km)
Ceiling: 1400 feet AGL
Clouds: scattered clouds at 1100 feet AGL
broken clouds at 1400 feet AGL
overcast cloud deck at 1600 feet AGL
Weather: no significant weather observed at this time

METAR text: EHRD 211055Z AUTO 25007KT 210V290 9999 BKN010 BKN014 OVC016 10/08 Q1035 NOSIG
Conditions at: EHRD (ROTTERDAM AIRPOR, NL) observed 1055 UTC 21 March 2019
Temperature: 10.0°C (50°F)
Dewpoint: 8.0°C (46°F) [RH = 87%]
Pressure (altimeter): 30.56 inches Hg (1035.0 mb)
Winds: from the WSW (250 degrees) at 8 MPH (7 knots; 3.6 m/s)
Visibility: 6 or more miles (10+ km)
Ceiling: 1000 feet AGL
Clouds: broken clouds at 1000 feet AGL
broken clouds at 1400 feet AGL
overcast cloud deck at 1600 feet AGL
Weather: no significant weather observed at this time

METAR text: EHRD 211025Z AUTO 25007KT 210V280 9999 FEW009 SCT013 OVC016 10/08 Q1034 TEMPO BKN012
Conditions at: EHRD (ROTTERDAM AIRPOR, NL) observed 1025 UTC 21 March 2019
Temperature: 10.0°C (50°F)
Dewpoint: 8.0°C (46°F) [RH = 87%]
Pressure (altimeter): 30.53 inches Hg (1034.0 mb)
Winds: from the WSW (250 degrees) at 8 MPH (7 knots; 3.6 m/s)
Visibility: 6 or more miles (10+ km)
Ceiling: 1600 feet AGL
Clouds: few clouds at 900 feet AGL
scattered clouds at 1300 feet AGL
overcast cloud deck at 1600 feet AGL
Weather: no significant weather observed at this time

METAR text: EHRD 210955Z AUTO 24007KT 210V280 9999 SCT008 OVC010 10/08 Q1034 BECMG BKN012
Conditions at: EHRD (ROTTERDAM AIRPOR, NL) observed 0955 UTC 21 March 2019
Temperature: 10.0°C (50°F)
Dewpoint: 8.0°C (46°F) [RH = 87%]
Pressure (altimeter): 30.53 inches Hg (1034.0 mb)
Winds: from the WSW (240 degrees) at 8 MPH (7 knots; 3.6 m/s)
Visibility: 6 or more miles (10+ km)
Ceiling: 1000 feet AGL
Clouds: scattered clouds at 800 feet AGL
overcast cloud deck at 1000 feet AGL
Weather: no significant weather observed at this time

METAR text: EHRD 210925Z AUTO 25008KT 210V280 9999 SCT007 OVC008 09/08 Q1034 BECMG BKN012
Conditions at: EHRD (ROTTERDAM AIRPOR, NL) observed 0925 UTC 21 March 2019
Temperature: 9.0°C (48°F)
Dewpoint: 8.0°C (46°F) [RH = 93%]
Pressure (altimeter): 30.53 inches Hg (1034.0 mb)
Winds: from the WSW (250 degrees) at 9 MPH (8 knots; 4.1 m/s)
Visibility: 6 or more miles (10+ km)
Ceiling: 800 feet AGL
Clouds: scattered clouds at 700 feet AGL
overcast cloud deck at 800 feet AGL
Weather: no significant weather observed at this time

METAR text: EHRD 210855Z AUTO 25008KT 9999 BKN009 OVC010 09/08 Q1034 BECMG BKN012
Conditions at: EHRD (ROTTERDAM AIRPOR, NL) observed 0855 UTC 21 March 2019
Temperature: 9.0°C (48°F)
Dewpoint: 8.0°C (46°F) [RH = 93%]
Pressure (altimeter): 30.53 inches Hg (1034.0 mb)
Winds: from the WSW (250 degrees) at 9 MPH (8 knots; 4.1 m/s)
Visibility: 6 or more miles (10+ km)
Ceiling: 900 feet AGL
Clouds: broken clouds at 900 feet AGL
overcast cloud deck at 1000 feet AGL
Weather: no significant weather observed at this time

METAR text: EHRD 210825Z AUTO 23008KT 9999 BKN011 OVC014 09/08 Q1034 NOSIG
Conditions at: EHRD (ROTTERDAM AIRPOR, NL) observed 0825 UTC 21 March 2019
Temperature: 9.0°C (48°F)
Dewpoint: 8.0°C (46°F) [RH = 93%]
Pressure (altimeter): 30.53 inches Hg (1034.0 mb)
Winds: from the SW (230 degrees) at 9 MPH (8 knots; 4.1 m/s)
Visibility: 6 or more miles (10+ km)
Ceiling: 1100 feet AGL
Clouds: broken clouds at 1100 feet AGL
overcast cloud deck at 1400 feet AGL
Weather: no significant weather observed at this time

METAR text: EHRD 210755Z AUTO 23009KT 200V260 9999 BKN011 OVC014 09/07 Q1034 NOSIG
Conditions at: EHRD (ROTTERDAM AIRPOR, NL) observed 0755 UTC 21 March 2019
Temperature: 9.0°C (48°F)
Dewpoint: 7.0°C (45°F) [RH = 87%]
Pressure (altimeter): 30.53 inches Hg (1034.0 mb)
Winds: from the SW (230 degrees) at 10 MPH (9 knots; 4.6 m/s)
Visibility: 6 or more miles (10+ km)
Ceiling: 1100 feet AGL
Clouds: broken clouds at 1100 feet AGL
overcast cloud deck at 1400 feet AGL
Weather: no significant weather observed at this time

METAR text: EHRD 210725Z AUTO 23007KT 190V250 9999 OVC011 09/08 Q1034 NOSIG
Conditions at: EHRD (ROTTERDAM AIRPOR, NL) observed 0725 UTC 21 March 2019
Temperature: 9.0°C (48°F)
Dewpoint: 8.0°C (46°F) [RH = 93%]
Pressure (altimeter): 30.53 inches Hg (1034.0 mb)
Winds: from the SW (230 degrees) at 8 MPH (7 knots; 3.6 m/s)
Visibility: 6 or more miles (10+ km)
Ceiling: 1100 feet AGL
Clouds: overcast cloud deck at 1100 feet AGL
Weather: no significant weather observed at this time

METAR text: EHRD 210655Z AUTO 23006KT 9999 BKN010 OVC013 08/08 Q1034 TEMPO BKN007
Conditions at: EHRD (ROTTERDAM AIRPOR, NL) observed 0655 UTC 21 March 2019
Temperature: 8.0°C (46°F)
Dewpoint: 8.0°C (46°F) [RH = 100%]
Pressure (altimeter): 30.53 inches Hg (1034.0 mb)
Winds: from the SW (230 degrees) at 7 MPH (6 knots; 3.1 m/s)
Visibility: 6 or more miles (10+ km)
Ceiling: 1000 feet AGL
Clouds: broken clouds at 1000 feet AGL
overcast cloud deck at 1300 feet AGL
Weather: no significant weather observed at this time

METAR text: EHRD 210625Z AUTO 24006KT 190V270 4700 BR FEW008 OVC011 08/07 Q1033 TEMPO 1400 BKN007
Conditions at: EHRD (ROTTERDAM AIRPOR, NL) observed 0625 UTC 21 March 2019
Temperature: 8.0°C (46°F)
Dewpoint: 7.0°C (45°F) [RH = 93%]
Pressure (altimeter): 30.50 inches Hg (1033.0 mb)
Winds: from the WSW (240 degrees) at 7 MPH (6 knots; 3.1 m/s)
Visibility: 2.92 miles (4.70 km)
Ceiling: 1100 feet AGL
Clouds: few clouds at 800 feet AGL
overcast cloud deck at 1100 feet AGL
Weather: BR  (mist)

METAR text: EHRD 210555Z AUTO 20004KT 2600 BR OVC011 06/06 Q1033 TEMPO 1400 BKN007
Conditions at: EHRD (ROTTERDAM AIRPOR, NL) observed 0555 UTC 21 March 2019
Temperature: 6.0°C (43°F)
Dewpoint: 6.0°C (43°F) [RH = 100%]
Pressure (altimeter): 30.50 inches Hg (1033.0 mb)
Winds: from the SSW (200 degrees) at 5 MPH (4 knots; 2.1 m/s)
Visibility: 1.62 miles (2.61 km)
Ceiling: 1100 feet AGL
Clouds: overcast cloud deck at 1100 feet AGL
Weather: BR  (mist)

METAR text: EHRD 210525Z AUTO 19004KT 2600 BR NSC 05/05 Q1033 TEMPO 1200
Conditions at: EHRD (ROTTERDAM AIRPOR, NL) observed 0525 UTC 21 March 2019
Temperature: 5.0°C (41°F)
Dewpoint: 5.0°C (41°F) [RH = 100%]
Pressure (altimeter): 30.50 inches Hg (1033.0 mb)
Winds: from the S (190 degrees) at 5 MPH (4 knots; 2.1 m/s)
Visibility: 1.62 miles (2.61 km)
Ceiling: at least 12,000 feet AGL
Clouds: sky clear below 12,000 feet AGL
Weather: BR  (mist)

METAR text: EHRD 210455Z AUTO 19004KT 2400 BR NSC 05/05 Q1033 TEMPO 1200
Conditions at: EHRD (ROTTERDAM AIRPOR, NL) observed 0455 UTC 21 March 2019
Temperature: 5.0°C (41°F)
Dewpoint: 5.0°C (41°F) [RH = 100%]
Pressure (altimeter): 30.50 inches Hg (1033.0 mb)
Winds: from the S (190 degrees) at 5 MPH (4 knots; 2.1 m/s)
Visibility: 1.49 miles (2.40 km)
Ceiling: at least 12,000 feet AGL
Clouds: sky clear below 12,000 feet AGL
Weather: BR  (mist)

METAR text: EHRD 210425Z AUTO 19004KT 2500 BR NSC 05/05 Q1033 TEMPO 1200
Conditions at: EHRD (ROTTERDAM AIRPOR, NL) observed 0425 UTC 21 March 2019
Temperature: 5.0°C (41°F)
Dewpoint: 5.0°C (41°F) [RH = 100%]
Pressure (altimeter): 30.50 inches Hg (1033.0 mb)
Winds: from the S (190 degrees) at 5 MPH (4 knots; 2.1 m/s)
Visibility: 1.55 miles (2.49 km)
Ceiling: at least 12,000 feet AGL
Clouds: sky clear below 12,000 feet AGL
Weather: BR  (mist)

METAR text: EHRD 210355Z AUTO 21004KT 2200 BR NSC 06/06 Q1033 TEMPO 1200
Conditions at: EHRD (ROTTERDAM AIRPOR, NL) observed 0355 UTC 21 March 2019
Temperature: 6.0°C (43°F)
Dewpoint: 6.0°C (43°F) [RH = 100%]
Pressure (altimeter): 30.50 inches Hg (1033.0 mb)
Winds: from the SSW (210 degrees) at 5 MPH (4 knots; 2.1 m/s)
Visibility: 1.37 miles (2.20 km)
Ceiling: at least 12,000 feet AGL
Clouds: sky clear below 12,000 feet AGL
Weather: BR  (mist)

METAR text: EHRD 210325Z AUTO 21004KT 4600 BR NSC 06/06 Q1033 TEMPO 2500
Conditions at: EHRD (ROTTERDAM AIRPOR, NL) observed 0325 UTC 21 March 2019
Temperature: 6.0°C (43°F)
Dewpoint: 6.0°C (43°F) [RH = 100%]
Pressure (altimeter): 30.50 inches Hg (1033.0 mb)
Winds: from the SSW (210 degrees) at 5 MPH (4 knots; 2.1 m/s)
Visibility: 2.86 miles (4.60 km)
Ceiling: at least 12,000 feet AGL
Clouds: sky clear below 12,000 feet AGL
Weather: BR  (mist)

METAR text: EHRD 210255Z AUTO 20004KT 3300 BR NSC 05/05 Q1033 TEMPO 1200
Conditions at: EHRD (ROTTERDAM AIRPOR, NL) observed 0255 UTC 21 March 2019
Temperature: 5.0°C (41°F)
Dewpoint: 5.0°C (41°F) [RH = 100%]
Pressure (altimeter): 30.50 inches Hg (1033.0 mb)
Winds: from the SSW (200 degrees) at 5 MPH (4 knots; 2.1 m/s)
Visibility: 2.05 miles (3.30 km)
Ceiling: at least 12,000 feet AGL
Clouds: sky clear below 12,000 feet AGL
Weather: BR  (mist)

METAR text: EHRD 210225Z AUTO VRB02KT 3300 BR NSC 06/06 Q1033 TEMPO 1200
Conditions at: EHRD (ROTTERDAM AIRPOR, NL) observed 0225 UTC 21 March 2019
Temperature: 6.0°C (43°F)
Dewpoint: 6.0°C (43°F) [RH = 100%]
Pressure (altimeter): 30.50 inches Hg (1033.0 mb)
Winds: variable direction winds at 2 MPH (2 knots; 1.0 m/s)
Visibility: 2.05 miles (3.30 km)
Ceiling: at least 12,000 feet AGL
Clouds: sky clear below 12,000 feet AGL
Weather: BR  (mist)

METAR text: EHRD 210155Z AUTO 21002KT 2200 BR NSC 07/07 Q1033 NOSIG
Conditions at: EHRD (ROTTERDAM AIRPOR, NL) observed 0155 UTC 21 March 2019
Temperature: 7.0°C (45°F)
Dewpoint: 7.0°C (45°F) [RH = 100%]
Pressure (altimeter): 30.50 inches Hg (1033.0 mb)
Winds: from the SSW (210 degrees) at 2 MPH (2 knots; 1.0 m/s)
Visibility: 1.37 miles (2.20 km)
Ceiling: at least 12,000 feet AGL
Clouds: sky clear below 12,000 feet AGL
Weather: BR  (mist)

METAR text: EHRD 210125Z AUTO 19003KT 6000 NSC 07/07 Q1034 NOSIG
Conditions at: EHRD (ROTTERDAM AIRPOR, NL) observed 0125 UTC 21 March 2019
Temperature: 7.0°C (45°F)
Dewpoint: 7.0°C (45°F) [RH = 100%]
Pressure (altimeter): 30.53 inches Hg (1034.0 mb)
Winds: from the S (190 degrees) at 3 MPH (3 knots; 1.5 m/s)
Visibility: 4 miles ( 6 km)
Ceiling: at least 12,000 feet AGL
Clouds: sky clear below 12,000 feet AGL
Weather: no significant weather observed at this time

METAR text: EHRD 210055Z AUTO 18002KT 5000 BR OVC020 07/07 Q1034 NOSIG
Conditions at: EHRD (ROTTERDAM AIRPOR, NL) observed 0055 UTC 21 March 2019
Temperature: 7.0°C (45°F)
Dewpoint: 7.0°C (45°F) [RH = 100%]
Pressure (altimeter): 30.53 inches Hg (1034.0 mb)
Winds: from the S (180 degrees) at 2 MPH (2 knots; 1.0 m/s)
Visibility: 3 miles ( 5 km)
Ceiling: 2000 feet AGL
Clouds: overcast cloud deck at 2000 feet AGL
Weather: BR  (mist)

METAR text: EHRD 210025Z AUTO 23004KT 8000 NSC 07/07 Q1034 NOSIG
Conditions at: EHRD (ROTTERDAM AIRPOR, NL) observed 0025 UTC 21 March 2019
Temperature: 7.0°C (45°F)
Dewpoint: 7.0°C (45°F) [RH = 100%]
Pressure (altimeter): 30.53 inches Hg (1034.0 mb)
Winds: from the SW (230 degrees) at 5 MPH (4 knots; 2.1 m/s)
Visibility: 5 miles ( 8 km)
Ceiling: at least 12,000 feet AGL
Clouds: sky clear below 12,000 feet AGL
Weather: no significant weather observed at this time

Forecast for: EHRD (ROTTERDAM AIRPOR, NL)
Text: TAF EHRD 221113Z 2212/2318 23007KT CAVOK
Forecast period: 1200 to 1800 UTC 22 March 2019
Forecast type: FROM: standard forecast or significant change
Winds: from the SW (230 degrees) at 8 MPH (7 knots; 3.6 m/s)
Visibility: 6 or more miles 10+ km)
Ceiling: unknown
Clouds: missing
Weather: NSW  (no significant weather)
Text: BECMG 2218/2220 1200 BR BKN002
Forecast period: 1800 UTC 22 March 2019 to 0200 UTC 23 March 2019
Forecast type: BECOMING: Conditions expected to become as follows by 2000 UTC 22 March 2019
Winds: from the SW (230 degrees) at 8 MPH (7 knots; 3.6 m/s)
Visibility: 0.75 miles (1.21 km)
Ceiling: 200 feet AGL
Clouds: broken clouds at 200 feet AGL
Weather: BR  (mist)
Text: PROB40 2219/2303 0500 FG BKN001
Forecast period: 1900 UTC 22 March 2019 to 0300 UTC 23 March 2019
Forecast type: PROBABLE: 40 percent likelihood of the following during this time
Visibility: 0.31 miles (0.50 km)
Ceiling: 100 feet AGL
Clouds: broken clouds at 100 feet AGL
Weather: FG  (fog)
Text: BECMG 2302/2305 6000 NSW BKN030
Forecast period: 0200 to 1200 UTC 23 March 2019
Forecast type: BECOMING: Conditions expected to become as follows by 0500 UTC 23 March 2019
Winds: from the SW (230 degrees) at 8 MPH (7 knots; 3.6 m/s)
Visibility: 4 miles (6 km)
Ceiling: 3000 feet AGL
Clouds: broken clouds at 3000 feet AGL
Weather: NSW  (no significant weather)
Text: PROB40
Forecast period: 0900 to 1300 UTC 23 March 2019
Forecast type: TEMPORARY: The following changes expected for less than half the time period
Visibility: 1.55 miles (2.49 km)
Ceiling: 600 feet AGL
Clouds: broken clouds at 600 feet AGL
Weather: -DZ  (light drizzle)
Text: TEMPO 2309/2313 2500 -DZ BKN006
Forecast period: 1200 to 1800 UTC 23 March 2019
Forecast type: BECOMING: Conditions expected to become as follows by 1500 UTC 23 March 2019
Winds: from the N (10 degrees) at 12 MPH (10 knots; 5.1 m/s)
Visibility: 6 or more miles 10+ km)
Ceiling: at least 12,000 feet AGL
Clouds: few clouds at 2500 feet AGL
Weather: NSW  (no significant weather)